createdAt,value
2022-08-11T00:02:01.917Z,6.17
2022-08-11T00:04:37.841Z,12.95
2022-08-11T00:07:07.351Z,6.93
2022-08-11T00:09:39.469Z,7.93
2022-08-11T00:12:16.132Z,8.30
2022-08-11T00:14:44.839Z,7.45
2022-08-11T00:17:15.889Z,9.90
2022-08-11T00:20:13.866Z,12.43
2022-08-11T00:22:41.793Z,8.65
2022-08-11T00:25:16.659Z,10.07
2022-08-11T00:27:45.588Z,9.25
2022-08-11T00:30:14.992Z,10.38
2022-08-11T00:32:52.314Z,7.30
2022-08-11T00:35:55.222Z,9.15
2022-08-11T00:38:27.539Z,8.77
2022-08-11T00:41:16.056Z,7.88
2022-08-11T00:44:23.883Z,6.55
2022-08-11T00:47:13.697Z,7.40
2022-08-11T00:50:17.987Z,6.63
2022-08-11T00:53:16.370Z,7.60
2022-08-11T00:56:18.861Z,7.43
2022-08-11T00:59:39.235Z,9.57
2022-08-11T01:02:21.010Z,9.73
2022-08-11T01:05:38.567Z,12.77
2022-08-11T01:08:55.777Z,7.72
2022-08-11T01:11:55.421Z,7.60
2022-08-11T01:14:52.809Z,9.52
2022-08-11T01:18:28.740Z,10.52
2022-08-11T01:21:18.076Z,8.43
2022-08-11T01:24:46.695Z,10.40
2022-08-11T01:27:44.581Z,8.82
2022-08-11T01:30:56.574Z,10.13
2022-08-11T01:34:01.405Z,10.75
2022-08-11T01:37:14.400Z,7.88
2022-08-11T01:40:12.817Z,6.97
2022-08-11T01:43:10.766Z,7.18
2022-08-11T01:46:10.902Z,9.77
2022-08-11T01:50:06.931Z,7.15
2022-08-11T01:52:33.290Z,7.65
2022-08-11T02:01:20.590Z,7.82
2022-08-11T02:04:26.891Z,8.32
2022-08-11T02:07:18.689Z,6.63
2022-08-11T02:13:36.557Z,6.45
2022-08-11T02:16:30.846Z,6.93
2022-08-11T02:20:00.538Z,6.85
2022-08-11T02:23:10.013Z,6.85
2022-08-11T02:25:59.994Z,7.80
2022-08-11T02:28:38.992Z,6.65
2022-08-11T02:32:15.425Z,7.05
2022-08-11T02:35:00.764Z,6.90
2022-08-11T02:37:34.067Z,6.75
2022-08-11T02:40:34.387Z,6.43
2022-08-11T02:43:50.768Z,8.13
2022-08-11T02:46:44.416Z,8.63
2022-08-11T02:50:06.331Z,8.30
2022-08-11T02:53:22.627Z,6.40
2022-08-11T02:56:10.866Z,6.38
2022-08-11T02:59:13.030Z,7.03
2022-08-11T03:02:30.283Z,8.82
2022-08-11T03:04:57.598Z,7.10
2022-08-11T03:07:46.736Z,9.43
2022-08-11T03:10:25.623Z,7.50
2022-08-11T03:13:39.766Z,9.48
2022-08-11T03:16:47.149Z,9.48
2022-08-11T03:19:43.620Z,9.63
2022-08-11T03:22:40.219Z,7.38
2022-08-11T03:25:34.698Z,8.73
2022-08-11T03:28:35.398Z,7.00
2022-08-11T03:31:29.509Z,8.93
2022-08-11T03:34:10.380Z,11.38
2022-08-11T03:37:17.004Z,11.73
2022-08-11T03:40:03.441Z,10.50
2022-08-11T03:42:43.572Z,7.78
2022-08-11T03:45:57.276Z,9.30
2022-08-11T03:49:07.442Z,12.50
2022-08-11T03:52:11.480Z,9.95
2022-08-11T03:54:52.465Z,7.88
2022-08-11T03:58:02.387Z,11.93
2022-08-11T04:00:55.861Z,9.23
2022-08-11T04:03:57.729Z,8.70
2022-08-11T04:07:05.215Z,9.40
2022-08-11T04:10:24.058Z,12.00
2022-08-11T04:13:18.807Z,15.05
2022-08-11T04:16:11.609Z,9.73
2022-08-11T04:19:11.152Z,9.40
2022-08-11T04:22:17.063Z,10.20
2022-08-11T04:25:05.682Z,11.63
2022-08-11T04:28:18.892Z,8.88
2022-08-11T04:31:50.327Z,12.25
2022-08-11T04:34:41.269Z,11.18
2022-08-11T04:37:36.366Z,9.55
2022-08-11T04:40:25.612Z,12.68
2022-08-11T04:43:36.739Z,13.27
2022-08-11T04:46:52.023Z,10.80
2022-08-11T04:50:32.558Z,11.13
2022-08-11T04:53:44.196Z,15.30
2022-08-11T04:56:43.208Z,19.45
2022-08-11T05:00:32.157Z,12.40
2022-08-11T05:03:22.151Z,15.40
2022-08-11T05:06:24.783Z,12.63
2022-08-11T05:09:27.748Z,16.02
2022-08-11T05:12:29.896Z,13.13
2022-08-11T05:15:18.273Z,10.75
2022-08-11T05:18:31.978Z,10.77
2022-08-11T05:21:28.516Z,9.63
2022-08-11T05:24:39.363Z,10.43
2022-08-11T05:27:30.985Z,9.07
2022-08-11T05:30:24.458Z,9.75
2022-08-11T05:33:49.356Z,10.65
2022-08-11T05:36:37.387Z,11.00
2022-08-11T05:39:36.716Z,11.55
2022-08-11T05:42:29.813Z,10.23
2022-08-11T05:46:02.694Z,13.93
2022-08-11T05:48:40.907Z,10.77
2022-08-11T05:51:30.540Z,9.55
2022-08-11T05:54:28.414Z,14.77
2022-08-11T05:57:01.191Z,11.45
2022-08-11T05:59:31.306Z,10.48
2022-08-11T06:02:08.657Z,13.48
2022-08-11T06:04:38.212Z,11.05
2022-08-11T06:07:09.795Z,12.93
2022-08-11T06:12:22.714Z,11.20
2022-08-11T06:14:56.003Z,11.02
2022-08-11T06:17:27.656Z,11.32
2022-08-11T06:20:13.083Z,13.00
2022-08-11T06:22:52.346Z,8.75
2022-08-11T06:25:21.592Z,12.82
2022-08-11T06:27:56.442Z,9.88
2022-08-11T06:30:40.810Z,8.90
2022-08-11T06:33:29.586Z,9.48
2022-08-11T06:36:14.042Z,10.43
2022-08-11T06:39:20.288Z,16.73
2022-08-11T06:42:10.752Z,9.02
2022-08-11T06:45:07.326Z,9.90
2022-08-11T06:47:36.336Z,9.60
2022-08-11T06:50:28.878Z,9.52
2022-08-11T06:52:57.287Z,10.15
2022-08-11T06:55:57.615Z,7.38
2022-08-11T06:58:51.681Z,6.95
2022-08-11T07:01:49.610Z,8.10
2022-08-11T07:04:48.090Z,9.68
2022-08-11T07:08:33.959Z,10.18
2022-08-11T07:12:07.063Z,8.60
2022-08-11T07:14:58.933Z,7.35
2022-08-11T07:17:34.981Z,6.72
2022-08-11T07:20:25.183Z,9.43
2022-08-11T07:23:17.968Z,6.32
2022-08-11T07:26:11.546Z,7.60
2022-08-11T07:28:56.083Z,7.38
2022-08-11T07:31:31.667Z,6.80
2022-08-11T07:34:28.114Z,7.85
2022-08-11T07:37:00.185Z,7.05
2022-08-11T07:39:33.266Z,6.65
2022-08-11T07:42:07.788Z,9.00
2022-08-11T07:44:56.932Z,8.32
2022-08-11T07:48:04.810Z,8.48
2022-08-11T07:50:56.014Z,7.85
2022-08-11T07:53:24.884Z,8.00
2022-08-11T07:55:56.049Z,6.97
2022-08-11T07:58:53.375Z,7.63
2022-08-11T08:01:45.432Z,6.18
2022-08-11T08:04:35.966Z,6.95
2022-08-11T08:07:24.501Z,4.47
2022-08-11T08:10:15.877Z,9.13
2022-08-11T08:13:03.535Z,4.40
2022-08-11T08:15:50.403Z,10.43
2022-08-11T08:18:26.675Z,5.50
2022-08-11T08:21:12.018Z,7.38
2022-08-11T08:23:44.397Z,6.18
2022-08-11T08:26:35.079Z,7.13
2022-08-11T08:29:26.549Z,7.72
2022-08-11T08:34:25.401Z,9.05
2022-08-11T08:36:53.458Z,6.88
2022-08-11T08:39:22.857Z,7.05
2022-08-11T08:41:57.724Z,7.93
2022-08-11T08:44:38.445Z,7.43
2022-08-11T08:47:16.838Z,9.15
2022-08-11T08:50:19.966Z,5.30
2022-08-11T08:52:58.089Z,6.18
2022-08-11T08:55:29.081Z,7.30
2022-08-11T08:58:00.584Z,6.60
2022-08-11T09:00:42.586Z,7.57
2022-08-11T09:03:38.930Z,6.15
2022-08-11T09:05:58.952Z,8.73
2022-08-11T09:08:27.608Z,6.10
2022-08-11T09:11:16.123Z,7.15
2022-08-11T09:13:46.806Z,6.68
2022-08-11T09:16:34.936Z,7.85
2022-08-11T09:19:03.838Z,6.78
2022-08-11T09:21:46.416Z,11.43
2022-08-11T09:24:38.453Z,9.60
2022-08-11T09:27:10.759Z,5.88
2022-08-11T09:29:38.732Z,8.57
2022-08-11T09:32:08.364Z,7.43
2022-08-11T09:34:39.274Z,6.25
2022-08-11T09:37:53.582Z,5.45
2022-08-11T09:40:32.468Z,6.68
2022-08-11T09:43:28.692Z,7.93
2022-08-11T09:45:59.200Z,6.38
2022-08-11T09:48:32.663Z,7.88
2022-08-11T09:51:02.390Z,7.38
2022-08-11T09:53:40.942Z,8.07
2022-08-11T09:56:38.070Z,6.95
2022-08-11T09:59:06.842Z,7.00
2022-08-11T10:01:55.134Z,6.28
2022-08-11T10:04:48.437Z,5.80
2022-08-11T10:07:20.394Z,5.72
2022-08-11T10:10:02.213Z,8.43
2022-08-11T10:12:37.251Z,11.27
2022-08-11T10:15:31.461Z,6.18
2022-08-11T10:18:26.770Z,6.68
2022-08-11T10:21:06.899Z,9.15
2022-08-11T10:24:00.662Z,8.80
2022-08-11T10:26:53.714Z,6.97
2022-08-11T10:29:56.490Z,8.13
2022-08-11T10:32:59.436Z,7.28
2022-08-11T10:35:31.538Z,7.55
2022-08-11T10:38:08.621Z,7.63
2022-08-11T10:40:40.859Z,7.35
2022-08-11T10:43:14.057Z,5.45
2022-08-11T10:46:05.433Z,5.43
2022-08-11T10:48:38.822Z,9.13
2022-08-11T10:51:14.187Z,7.88
2022-08-11T10:54:05.236Z,9.20
2022-08-11T10:59:28.023Z,7.07
2022-08-11T11:01:56.573Z,8.52
2022-08-11T11:05:31.451Z,8.73
2022-08-11T11:08:32.891Z,6.32
2022-08-11T11:11:06.385Z,6.75
2022-08-11T11:13:55.554Z,5.40
2022-08-11T11:19:19.260Z,5.45
2022-08-11T11:22:15.483Z,4.45
2022-08-11T11:25:12.787Z,6.03
2022-08-11T11:27:53.394Z,7.13
2022-08-11T11:30:27.087Z,7.05
2022-08-11T11:34:06.462Z,8.75
2022-08-11T11:36:50.633Z,8.85
2022-08-11T11:39:23.778Z,10.10
2022-08-11T11:41:57.026Z,9.18
2022-08-11T11:44:25.981Z,8.05
2022-08-11T11:46:57.913Z,7.13
2022-08-11T11:49:29.695Z,4.90
2022-08-11T11:52:00.130Z,7.45
2022-08-11T11:54:33.925Z,5.28
2022-08-11T11:57:22.835Z,5.03
2022-08-11T12:00:11.901Z,7.13
2022-08-11T12:02:41.213Z,6.75
2022-08-11T12:05:11.227Z,6.75
2022-08-11T12:08:05.091Z,7.77
2022-08-11T12:10:47.202Z,4.40
2022-08-11T12:13:37.276Z,5.13
2022-08-11T12:16:34.517Z,5.93
2022-08-11T12:19:00.270Z,5.35
2022-08-11T12:21:29.671Z,9.43
2022-08-11T12:24:19.740Z,6.10
2022-08-11T12:27:14.848Z,7.10
2022-08-11T12:29:41.232Z,7.28
2022-08-11T12:32:15.338Z,5.43
2022-08-11T12:34:44.848Z,6.20
2022-08-11T12:37:16.422Z,6.07
2022-08-11T12:40:42.668Z,5.38
2022-08-11T12:43:36.913Z,5.93
2022-08-11T12:46:16.768Z,5.68
2022-08-11T12:49:09.931Z,5.45
2022-08-11T12:52:13.614Z,6.20
2022-08-11T12:54:54.328Z,5.65
2022-08-11T12:57:58.262Z,5.35
2022-08-11T13:00:46.929Z,7.05
2022-08-11T13:03:33.894Z,6.28
2022-08-11T13:06:04.541Z,5.65
2022-08-11T13:08:36.938Z,5.30
2022-08-11T13:11:24.338Z,7.45
2022-08-11T13:13:57.733Z,5.63
2022-08-11T13:16:54.530Z,6.35
2022-08-11T13:19:24.133Z,4.72
2022-08-11T13:21:53.393Z,6.45
2022-08-11T13:24:23.161Z,5.93
2022-08-11T13:26:51.712Z,4.78
2022-08-11T13:29:26.527Z,5.15
2022-08-11T13:31:58.251Z,4.70
2022-08-11T13:34:28.723Z,9.85
2022-08-11T13:37:00.987Z,6.78
2022-08-11T13:39:32.136Z,5.93
2022-08-11T13:42:02.530Z,6.97
2022-08-11T13:44:35.974Z,5.60
2022-08-11T13:47:07.851Z,5.53
2022-08-11T13:49:39.540Z,4.72
2022-08-11T13:52:14.151Z,12.77
2022-08-11T13:54:44.169Z,6.18
2022-08-11T13:58:06.271Z,7.73
2022-08-11T14:00:13.324Z,7.10
2022-08-11T14:02:55.675Z,6.43
2022-08-11T14:05:29.371Z,3.75
2022-08-11T14:08:07.678Z,5.65
2022-08-11T14:10:39.670Z,6.85
2022-08-11T14:13:42.199Z,5.80
2022-08-11T14:16:42.889Z,5.35
2022-08-11T14:19:14.461Z,4.70
2022-08-11T14:22:08.641Z,6.10
2022-08-11T14:24:49.720Z,5.90
2022-08-11T14:27:39.089Z,4.53
2022-08-11T14:30:27.332Z,5.30
2022-08-11T14:32:57.292Z,6.15
2022-08-11T14:35:28.789Z,6.22
2022-08-11T14:37:59.154Z,7.78
2022-08-11T14:40:45.736Z,4.85
2022-08-11T14:44:04.865Z,8.60
2022-08-11T14:46:38.693Z,5.63
2022-08-11T14:49:06.762Z,5.57
2022-08-11T14:51:35.117Z,6.82
2022-08-11T14:54:22.385Z,5.40
2022-08-11T14:56:50.250Z,7.18
2022-08-11T14:59:17.910Z,7.15
2022-08-11T15:02:04.293Z,10.65
2022-08-11T15:04:36.546Z,5.60
2022-08-11T15:07:05.639Z,7.90
2022-08-11T15:10:11.652Z,5.88
2022-08-11T15:12:37.174Z,5.15
2022-08-11T15:15:26.350Z,7.80
2022-08-11T15:17:58.684Z,5.25
2022-08-11T15:20:47.669Z,7.95
2022-08-11T15:23:40.320Z,6.35
2022-08-11T15:26:15.424Z,5.25
2022-08-11T15:29:12.146Z,4.75
2022-08-11T15:31:49.133Z,6.90
2022-08-11T15:34:40.858Z,4.95
2022-08-11T15:37:26.895Z,7.82
2022-08-11T15:40:30.008Z,7.20
2022-08-11T15:43:33.625Z,5.80
2022-08-11T15:46:11.787Z,5.03
2022-08-11T15:49:03.794Z,6.32
2022-08-11T15:52:01.568Z,5.22
2022-08-11T15:54:33.666Z,6.13
2022-08-11T15:57:05.602Z,7.63
2022-08-11T15:59:56.713Z,5.38
2022-08-11T16:02:36.135Z,4.05
2022-08-11T16:05:11.758Z,6.75
2022-08-11T16:07:43.286Z,5.00
2022-08-11T16:10:19.562Z,9.00
2022-08-11T16:13:07.722Z,4.10
2022-08-11T16:16:08.151Z,8.35
2022-08-11T16:19:01.542Z,5.47
2022-08-11T16:21:40.055Z,5.32
2022-08-11T16:27:04.503Z,3.60
2022-08-11T16:27:13.592Z,3.88
2022-08-11T16:29:47.975Z,7.75
2022-08-11T16:32:23.224Z,9.65
2022-08-11T16:35:27.977Z,5.03
2022-08-11T16:38:16.165Z,6.05
2022-08-11T16:40:46.948Z,7.20
2022-08-11T16:43:39.569Z,4.40
2022-08-11T16:46:27.801Z,5.32
2022-08-11T16:48:57.936Z,6.18
2022-08-11T16:51:28.855Z,3.92
2022-08-11T16:54:05.844Z,5.32
2022-08-11T16:56:54.040Z,5.93
2022-08-11T16:59:31.851Z,6.85
2022-08-11T17:02:11.787Z,4.60
2022-08-11T17:05:18.584Z,6.70
2022-08-11T17:08:05.583Z,6.32
2022-08-11T17:11:06.857Z,7.75
2022-08-11T17:13:44.655Z,6.93
2022-08-11T17:16:19.283Z,6.60
2022-08-11T17:19:08.844Z,4.10
2022-08-11T17:22:06.156Z,7.28
2022-08-11T17:24:43.747Z,8.07
2022-08-11T17:27:17.069Z,6.38
2022-08-11T17:29:56.557Z,11.32
2022-08-11T17:32:55.625Z,6.70
2022-08-11T17:35:32.801Z,8.55
2022-08-11T17:38:14.656Z,4.47
2022-08-11T17:41:06.701Z,5.57
2022-08-11T17:43:53.303Z,6.57
2022-08-11T17:46:40.340Z,9.63
2022-08-11T17:49:13.844Z,5.57
2022-08-11T17:52:03.884Z,10.90
2022-08-11T17:54:52.924Z,9.30
2022-08-11T17:57:47.661Z,5.78
2022-08-11T18:00:17.067Z,6.47
2022-08-11T18:03:06.709Z,5.38
2022-08-11T18:05:43.537Z,6.13
2022-08-11T18:08:33.289Z,8.43
2022-08-11T18:12:06.756Z,5.95
2022-08-11T18:14:31.237Z,4.90
2022-08-11T18:17:17.694Z,5.85
2022-08-11T18:20:04.227Z,8.90
2022-08-11T18:22:56.869Z,16.38
2022-08-11T18:25:51.590Z,7.85
2022-08-11T18:28:48.802Z,6.55
2022-08-11T18:31:39.371Z,6.95
2022-08-11T18:34:32.357Z,11.02
2022-08-11T18:37:29.525Z,7.90
2022-08-11T18:40:22.471Z,11.00
2022-08-11T18:43:13.567Z,6.97
2022-08-11T18:46:06.751Z,6.63
2022-08-11T18:48:58.703Z,6.18
2022-08-11T18:51:46.987Z,11.38
2022-08-11T18:54:35.984Z,8.65
2022-08-11T18:57:26.533Z,8.15
2022-08-11T19:00:18.082Z,8.75
2022-08-11T19:03:09.181Z,8.75
2022-08-11T19:09:13.465Z,9.27
2022-08-11T19:12:01.953Z,8.57
2022-08-11T19:14:53.345Z,10.55
2022-08-11T19:17:45.958Z,8.02
2022-08-11T19:20:38.198Z,11.93
2022-08-11T19:23:29.677Z,15.52
2022-08-11T19:26:18.850Z,10.90
2022-08-11T19:29:08.881Z,13.73
2022-08-11T19:32:18.249Z,10.90
2022-08-11T19:35:07.914Z,7.60
2022-08-11T19:37:57.172Z,13.68
2022-08-11T19:40:44.074Z,15.82
2022-08-11T19:43:32.568Z,11.95
2022-08-11T19:46:20.757Z,11.82
2022-08-11T19:49:12.849Z,16.58
2022-08-11T19:52:02.556Z,12.18
2022-08-11T19:54:52.864Z,7.95
2022-08-11T19:57:43.409Z,10.98
2022-08-11T20:00:38.919Z,12.07
2022-08-11T20:03:29.711Z,12.52
2022-08-11T20:06:23.513Z,11.67
2022-08-11T20:09:14.759Z,17.27
2022-08-11T20:12:11.833Z,14.98
2022-08-11T20:15:01.893Z,8.27
2022-08-11T20:17:57.678Z,11.10
2022-08-11T20:20:46.631Z,7.72
2022-08-11T20:23:36.582Z,11.13
2022-08-11T20:26:31.117Z,10.65
2022-08-11T20:29:20.382Z,11.05
2022-08-11T20:32:09.292Z,14.38
2022-08-11T20:34:57.999Z,10.73
2022-08-11T20:37:50.750Z,10.55
2022-08-11T20:40:44.300Z,11.52
2022-08-11T20:44:08.349Z,15.70
2022-08-11T20:46:48.104Z,10.95
2022-08-11T20:52:48.608Z,12.00
2022-08-11T20:55:51.998Z,13.82
2022-08-11T20:59:13.412Z,12.20
2022-08-11T21:01:52.159Z,15.13
2022-08-11T21:04:54.910Z,10.07
2022-08-11T21:07:55.456Z,10.02
2022-08-11T21:10:57.686Z,9.73
2022-08-11T21:13:53.514Z,12.90
2022-08-11T21:16:53.864Z,7.15
2022-08-11T21:20:01.893Z,17.88
2022-08-11T21:23:05.236Z,11.95
2022-08-11T21:26:03.891Z,9.05
2022-08-11T21:28:53.543Z,9.02
2022-08-11T21:31:42.534Z,11.20
2022-08-11T21:34:37.210Z,13.13
2022-08-11T21:37:26.365Z,14.43
2022-08-11T21:40:17.522Z,12.15
2022-08-11T21:43:07.274Z,14.70
2022-08-11T21:45:57.683Z,11.57
2022-08-11T21:48:48.448Z,10.18
2022-08-11T21:51:34.505Z,11.57
2022-08-11T21:54:22.154Z,9.85
2022-08-11T21:57:09.541Z,15.40
2022-08-11T22:00:09.650Z,17.98
2022-08-11T22:03:03.406Z,17.65
2022-08-11T22:05:53.304Z,15.57
2022-08-11T22:08:39.324Z,13.35
2022-08-11T22:11:32.345Z,13.90
2022-08-11T22:14:22.410Z,13.90
2022-08-11T22:17:09.435Z,10.55
2022-08-11T22:20:00.683Z,15.70
2022-08-11T22:25:50.831Z,10.57
2022-08-11T22:28:38.759Z,9.45
2022-08-11T22:31:28.407Z,9.88
2022-08-11T22:34:14.928Z,8.85
2022-08-11T22:37:04.789Z,7.82
2022-08-11T22:40:01.632Z,8.02
2022-08-11T22:42:52.906Z,7.95
2022-08-11T22:45:41.477Z,10.57
2022-08-11T22:48:30.478Z,9.15
2022-08-11T22:51:18.992Z,11.60
2022-08-11T22:54:08.017Z,8.60
2022-08-11T22:56:55.032Z,8.95
2022-08-11T22:59:43.068Z,10.52
2022-08-11T23:02:30.605Z,7.85
2022-08-11T23:05:24.244Z,7.55
2022-08-11T23:08:10.884Z,7.75
2022-08-11T23:10:59.184Z,9.60
2022-08-11T23:13:47.165Z,10.13
2022-08-11T23:16:33.501Z,8.30
2022-08-11T23:20:08.361Z,7.13
2022-08-11T23:22:36.723Z,8.68
2022-08-11T23:25:29.888Z,8.02
2022-08-11T23:28:19.870Z,7.22
2022-08-11T23:31:09.389Z,6.28
2022-08-11T23:34:00.888Z,8.38
2022-08-11T23:36:47.994Z,7.15
2022-08-11T23:39:35.391Z,6.38
2022-08-11T23:42:26.286Z,5.85
2022-08-11T23:45:17.474Z,7.57
2022-08-11T23:48:06.924Z,5.90
2022-08-11T23:50:54.255Z,7.20
2022-08-11T23:53:40.590Z,9.55
2022-08-11T23:56:29.246Z,7.03
2022-08-11T23:59:23.779Z,8.82
